createdAt,value
2023-02-17T00:00:09.138Z,-3.29
2023-02-17T00:05:13.675Z,-3.21
2023-02-17T00:10:18.814Z,-3.13
2023-02-17T00:15:24.608Z,-3.06
2023-02-17T00:20:30.907Z,-2.89
2023-02-17T00:25:37.186Z,-2.74
2023-02-17T00:30:43.444Z,-2.56
2023-02-17T00:35:49.109Z,-2.39
2023-02-17T00:40:56.544Z,-2.26
2023-02-17T00:46:02.514Z,-2.07
2023-02-17T00:51:08.955Z,-1.91
2023-02-17T00:56:15.238Z,-1.80
2023-02-17T01:01:22.735Z,-1.71
2023-02-17T01:06:29.349Z,-1.64
2023-02-17T01:11:36.263Z,-1.56
2023-02-17T01:16:46.033Z,-1.49
2023-02-17T01:21:52.179Z,-1.37
2023-02-17T01:26:56.920Z,-1.17
2023-02-17T01:32:05.949Z,-0.89
2023-02-17T01:37:10.643Z,-0.55
2023-02-17T01:42:21.254Z,-0.22
2023-02-17T01:47:28.266Z,0.03
2023-02-17T01:52:34.622Z,0.26
2023-02-17T01:57:43.486Z,0.47
2023-02-17T02:09:31.133Z,0.67
2023-02-17T02:14:39.919Z,0.86
2023-02-17T02:19:51.162Z,1.09
2023-02-17T02:25:14.622Z,1.24
2023-02-17T02:30:43.735Z,1.40
2023-02-17T02:36:12.150Z,1.57
2023-02-17T02:41:31.253Z,1.69
2023-02-17T02:46:36.709Z,1.92
2023-02-17T02:51:43.414Z,2.15
2023-02-17T02:57:30.947Z,2.38
2023-02-17T03:02:54.423Z,2.52
2023-02-17T03:08:19.914Z,2.71
2023-02-17T03:13:24.772Z,2.86
2023-02-17T03:18:30.154Z,3.07
2023-02-17T03:23:35.353Z,3.19
2023-02-17T03:28:40.683Z,3.45
2023-02-17T03:33:47.334Z,3.64
2023-02-17T03:38:53.395Z,3.88
2023-02-17T03:43:58.053Z,4.09
2023-02-17T03:49:03.399Z,4.20
2023-02-17T03:54:09.154Z,4.33
2023-02-17T03:59:15.058Z,4.44
2023-02-17T04:04:19.764Z,4.50
2023-02-17T04:09:25.550Z,4.49
2023-02-17T04:14:30.985Z,4.50
2023-02-17T04:19:35.655Z,4.53
2023-02-17T04:24:40.871Z,4.63
2023-02-17T04:29:45.493Z,4.78
2023-02-17T04:34:51.103Z,4.88
2023-02-17T04:39:55.682Z,4.90
2023-02-17T04:45:01.114Z,4.90
2023-02-17T04:50:07.734Z,4.90
2023-02-17T04:55:11.831Z,4.99
2023-02-17T05:00:16.654Z,5.04
2023-02-17T05:05:22.332Z,5.10
2023-02-17T05:10:27.030Z,5.18
2023-02-17T05:15:34.785Z,5.27
2023-02-17T05:20:41.001Z,5.25
2023-02-17T05:25:45.670Z,5.21
2023-02-17T05:30:53.243Z,5.18
2023-02-17T05:35:58.034Z,5.16
2023-02-17T05:41:02.871Z,5.13
2023-02-17T05:46:08.086Z,5.07
2023-02-17T05:51:14.998Z,5.00
2023-02-17T05:56:19.837Z,4.90
2023-02-17T06:01:24.411Z,4.85
2023-02-17T06:06:29.100Z,4.77
2023-02-17T06:11:33.770Z,4.76
2023-02-17T06:16:38.465Z,4.79
2023-02-17T06:21:43.902Z,4.77
2023-02-17T06:26:48.441Z,4.76
2023-02-17T06:31:53.242Z,4.79
2023-02-17T06:36:58.204Z,4.79
2023-02-17T06:42:03.890Z,4.83
2023-02-17T06:47:08.567Z,4.86
2023-02-17T06:52:14.204Z,4.85
2023-02-17T06:57:19.329Z,4.92
2023-02-17T07:02:24.489Z,4.92
2023-02-17T07:07:30.781Z,4.92
2023-02-17T07:12:35.420Z,4.90
2023-02-17T07:17:40.985Z,4.86
2023-02-17T07:22:47.260Z,4.79
2023-02-17T07:27:51.809Z,4.75
2023-02-17T07:32:56.356Z,4.75
2023-02-17T07:38:01.929Z,4.72
2023-02-17T07:43:07.458Z,4.68
2023-02-17T07:48:13.145Z,4.72
2023-02-17T07:53:17.781Z,4.71
2023-02-17T07:58:22.499Z,4.71
2023-02-17T08:03:27.170Z,4.74
2023-02-17T08:08:50.335Z,4.79
2023-02-17T08:13:56.264Z,4.87
2023-02-17T08:19:00.905Z,4.85
2023-02-17T08:24:05.879Z,4.80
2023-02-17T08:29:11.432Z,4.78
2023-02-17T08:34:16.185Z,4.71
2023-02-17T08:39:21.377Z,4.69
2023-02-17T08:44:25.565Z,4.64
2023-02-17T08:49:33.130Z,4.64
2023-02-17T08:54:41.388Z,4.62
2023-02-17T08:59:49.230Z,4.55
2023-02-17T09:04:53.918Z,4.51
2023-02-17T09:09:59.231Z,4.44
2023-02-17T09:15:04.805Z,4.41
2023-02-17T09:20:23.862Z,4.34
2023-02-17T09:25:29.636Z,4.23
2023-02-17T09:30:34.558Z,4.10
2023-02-17T09:35:41.218Z,4.04
2023-02-17T09:40:51.533Z,3.93
2023-02-17T09:46:02.131Z,3.82
2023-02-17T09:51:20.659Z,3.74
2023-02-17T09:56:34.178Z,3.67
2023-02-17T10:01:39.948Z,3.58
2023-02-17T10:06:51.681Z,3.56
2023-02-17T10:12:08.119Z,3.51
2023-02-17T10:17:33.707Z,3.45
2023-02-17T10:22:38.493Z,3.41
2023-02-17T10:28:01.872Z,3.34
2023-02-17T10:33:34.952Z,3.25
2023-02-17T10:38:55.118Z,3.13
2023-02-17T10:44:01.854Z,3.01
2023-02-17T10:49:07.225Z,2.89
2023-02-17T10:54:34.493Z,2.76
2023-02-17T10:59:45.520Z,2.60
2023-02-17T11:04:53.958Z,2.52
2023-02-17T11:10:03.782Z,2.42
2023-02-17T11:15:37.175Z,2.32
2023-02-17T11:20:43.569Z,2.24
2023-02-17T11:26:01.993Z,2.12
2023-02-17T11:31:08.442Z,2.04
2023-02-17T11:36:28.195Z,1.97
2023-02-17T11:41:42.427Z,1.88
2023-02-17T11:47:11.632Z,1.78
2023-02-17T11:52:40.196Z,1.69
2023-02-17T11:58:07.811Z,1.58
2023-02-17T12:03:44.856Z,1.48
2023-02-17T12:09:28.518Z,1.35
2023-02-17T12:14:42.090Z,1.19
2023-02-17T12:20:08.247Z,0.88
2023-02-17T12:25:32.120Z,0.61
2023-02-17T12:31:04.332Z,0.49
2023-02-17T12:36:19.360Z,0.33
2023-02-17T12:41:44.554Z,0.20
2023-02-17T12:46:54.638Z,0.05
2023-02-17T12:52:10.090Z,-0.05
2023-02-17T12:57:26.512Z,0.01
2023-02-17T13:02:32.108Z,0.06
2023-02-17T13:07:36.316Z,0.11
2023-02-17T13:12:42.997Z,0.16
2023-02-17T13:18:04.828Z,0.17
2023-02-17T13:23:16.027Z,0.18
2023-02-17T13:28:36.688Z,0.18
2023-02-17T13:34:01.647Z,0.13
2023-02-17T13:39:31.008Z,0.12
2023-02-17T13:44:44.684Z,0.04
2023-02-17T13:50:02.615Z,-0.05
2023-02-17T13:55:09.788Z,-0.15
2023-02-17T14:00:21.080Z,-0.14
2023-02-17T14:05:47.915Z,-0.07
2023-02-17T14:10:54.462Z,0.05
2023-02-17T14:16:02.230Z,0.16
2023-02-17T14:21:14.331Z,0.07
2023-02-17T14:26:45.327Z,-0.06
2023-02-17T14:31:52.870Z,-0.27
2023-02-17T14:37:09.021Z,-0.42
2023-02-17T14:42:14.818Z,-0.53
2023-02-17T14:47:20.068Z,-0.66
2023-02-17T14:52:27.209Z,-0.71
2023-02-17T14:57:33.558Z,-0.68
2023-02-17T15:02:41.972Z,-0.64
2023-02-17T15:07:47.118Z,-0.64
2023-02-17T15:12:54.073Z,-0.61
2023-02-17T15:18:02.305Z,-0.67
2023-02-17T15:23:16.648Z,-0.65
2023-02-17T15:28:22.741Z,-0.69
2023-02-17T15:33:27.733Z,-0.75
2023-02-17T15:38:32.593Z,-0.87
2023-02-17T15:43:38.141Z,-0.89
2023-02-17T15:48:44.145Z,-0.91
2023-02-17T15:53:50.168Z,-0.88
2023-02-17T15:58:56.084Z,-0.90
2023-02-17T16:04:02.073Z,-0.82
2023-02-17T16:09:07.228Z,-0.71
2023-02-17T16:14:32.974Z,-0.70
2023-02-17T16:19:39.021Z,-0.75
2023-02-17T16:24:44.039Z,-0.81
2023-02-17T16:29:48.743Z,-0.85
2023-02-17T16:34:53.402Z,-0.97
2023-02-17T16:39:57.417Z,-1.05
2023-02-17T16:45:02.119Z,-1.15
2023-02-17T16:50:10.547Z,-1.22
2023-02-17T16:55:20.655Z,-1.26
2023-02-17T17:00:29.129Z,-1.31
2023-02-17T17:05:35.242Z,-1.29
2023-02-17T17:10:41.796Z,-1.24
2023-02-17T17:15:48.113Z,-1.26
2023-02-17T17:20:54.792Z,-1.31
2023-02-17T17:25:59.393Z,-1.32
2023-02-17T17:31:06.361Z,-1.29
2023-02-17T17:36:28.231Z,-1.31
2023-02-17T17:41:33.393Z,-1.35
2023-02-17T17:46:39.120Z,-1.39
2023-02-17T17:51:44.297Z,-1.44
2023-02-17T17:56:48.975Z,-1.49
2023-02-17T18:01:53.741Z,-1.48
2023-02-17T18:06:59.598Z,-1.46
2023-02-17T18:12:10.378Z,-1.37
2023-02-17T18:17:19.350Z,-1.32
2023-02-17T18:22:26.291Z,-1.25
2023-02-17T18:27:30.945Z,-1.20
2023-02-17T18:32:37.078Z,-1.14
2023-02-17T18:37:42.313Z,-1.12
2023-02-17T18:42:48.620Z,-1.28
2023-02-17T18:47:53.403Z,-1.31
2023-02-17T18:52:58.111Z,-1.40
2023-02-17T18:58:03.821Z,-1.48
2023-02-17T19:03:08.508Z,-1.53
2023-02-17T19:08:13.988Z,-1.58
2023-02-17T19:13:18.633Z,-1.56
2023-02-17T19:18:24.295Z,-1.51
2023-02-17T19:23:28.946Z,-1.41
2023-02-17T19:28:34.857Z,-1.37
2023-02-17T19:33:40.533Z,-1.37
2023-02-17T19:38:45.257Z,-1.38
2023-02-17T19:43:52.014Z,-1.48
2023-02-17T19:48:56.707Z,-1.57
2023-02-17T19:54:02.824Z,-1.74
2023-02-17T19:59:08.332Z,-1.88
2023-02-17T20:04:13.402Z,-2.01
2023-02-17T20:09:23.025Z,-2.12
2023-02-17T20:14:27.668Z,-2.19
2023-02-17T20:19:35.771Z,-2.12
2023-02-17T20:24:43.180Z,-2.06
2023-02-17T20:29:47.759Z,-2.09
2023-02-17T20:34:52.766Z,-2.05
2023-02-17T20:39:56.887Z,-2.01
2023-02-17T20:45:01.706Z,-2.03
2023-02-17T20:50:10.452Z,-2.13
2023-02-17T20:55:16.742Z,-2.24
2023-02-17T21:00:24.708Z,-2.33
2023-02-17T21:05:29.680Z,-2.39
2023-02-17T21:10:36.415Z,-2.44
2023-02-17T21:15:41.262Z,-2.46
2023-02-17T21:20:47.529Z,-2.45
2023-02-17T21:25:52.090Z,-2.37
2023-02-17T21:30:57.034Z,-2.28
2023-02-17T21:36:08.563Z,-2.23
2023-02-17T21:41:16.165Z,-2.21
2023-02-17T21:46:23.071Z,-2.19
2023-02-17T21:51:28.945Z,-2.30
2023-02-17T21:56:33.831Z,-2.36
2023-02-17T22:01:38.939Z,-2.46
2023-02-17T22:06:43.409Z,-2.51
2023-02-17T22:11:48.774Z,-2.51
2023-02-17T22:16:53.385Z,-2.54
2023-02-17T22:21:57.956Z,-2.58
2023-02-17T22:27:03.662Z,-2.46
2023-02-17T22:32:10.570Z,-2.40
2023-02-17T22:37:15.281Z,-2.36
2023-02-17T22:42:19.852Z,-2.36
2023-02-17T22:47:24.566Z,-2.38
2023-02-17T22:52:29.971Z,-2.39
2023-02-17T22:57:34.574Z,-2.44
2023-02-17T23:02:39.119Z,-2.47
2023-02-17T23:07:44.694Z,-2.51
2023-02-17T23:12:49.287Z,-2.58
2023-02-17T23:17:58.618Z,-2.62
2023-02-17T23:23:04.866Z,-2.67
2023-02-17T23:28:09.673Z,-2.64
2023-02-17T23:33:14.269Z,-2.54
2023-02-17T23:38:22.030Z,-2.44
2023-02-17T23:43:26.798Z,-2.39
2023-02-17T23:48:32.887Z,-2.34
2023-02-17T23:53:38.932Z,-2.28
2023-02-17T23:58:45.464Z,-2.22
